createdAt,value
2018-05-03T00:01:34.536Z,3.30
2018-05-03T00:04:02.730Z,3.53
2018-05-03T00:06:30.949Z,4.00
2018-05-03T00:08:59.167Z,4.03
2018-05-03T00:11:27.393Z,3.50
2018-05-03T00:13:55.610Z,3.60
2018-05-03T00:16:23.845Z,3.77
2018-05-03T00:18:52.845Z,3.87
2018-05-03T00:21:21.067Z,3.60
2018-05-03T00:23:49.321Z,3.33
2018-05-03T00:26:18.412Z,3.53
2018-05-03T00:28:46.604Z,3.93
2018-05-03T00:31:14.824Z,3.80
2018-05-03T00:33:43.806Z,3.90
2018-05-03T00:36:12.039Z,3.90
2018-05-03T00:38:40.259Z,3.63
2018-05-03T00:41:08.465Z,3.83
2018-05-03T00:43:36.685Z,3.73
2018-05-03T00:46:04.909Z,4.10
2018-05-03T00:48:33.145Z,3.70
2018-05-03T00:51:02.165Z,3.73
2018-05-03T00:53:31.145Z,4.00
2018-05-03T00:55:59.357Z,3.80
2018-05-03T00:58:27.580Z,4.17
2018-05-03T01:00:55.796Z,3.80
2018-05-03T01:03:24.030Z,4.93
2018-05-03T01:05:52.269Z,4.17
2018-05-03T01:08:20.482Z,4.43
2018-05-03T01:10:49.481Z,4.23
2018-05-03T01:13:18.469Z,4.30
2018-05-03T01:15:46.704Z,4.27
2018-05-03T01:18:14.934Z,4.40
2018-05-03T01:20:43.152Z,4.30
2018-05-03T01:23:12.135Z,4.50
2018-05-03T01:25:40.343Z,4.70
2018-05-03T01:28:09.334Z,4.67
2018-05-03T01:30:37.550Z,4.60
2018-05-03T01:33:06.531Z,5.40
2018-05-03T01:35:46.591Z,4.30
2018-05-03T01:38:14.797Z,4.77
2018-05-03T01:40:43.795Z,4.83
2018-05-03T01:43:12.017Z,4.43
2018-05-03T01:45:40.237Z,4.63
2018-05-03T01:48:08.462Z,4.30
2018-05-03T01:50:37.452Z,4.37
2018-05-03T01:53:05.685Z,4.23
2018-05-03T01:55:33.911Z,4.60
2018-05-03T01:58:02.147Z,4.87
2018-05-03T02:00:31.146Z,4.87
2018-05-03T02:03:00.132Z,5.23
2018-05-03T02:05:28.344Z,4.70
2018-05-03T02:07:57.325Z,4.33
2018-05-03T02:10:25.539Z,4.50
2018-05-03T02:12:54.514Z,5.00
2018-05-03T02:15:22.809Z,5.03
2018-05-03T02:17:51.046Z,4.63
2018-05-03T02:20:19.289Z,4.90
2018-05-03T02:22:47.529Z,4.70
2018-05-03T02:25:15.753Z,4.70
2018-05-03T02:27:44.254Z,4.80
2018-05-03T02:30:12.475Z,5.33
2018-05-03T02:32:40.703Z,5.27
2018-05-03T02:35:08.913Z,4.80
2018-05-03T02:37:37.139Z,4.90
2018-05-03T02:40:05.364Z,5.33
2018-05-03T02:42:33.578Z,5.40
2018-05-03T02:45:01.797Z,5.13
2018-05-03T02:47:30.024Z,5.37
2018-05-03T02:49:58.233Z,5.03
2018-05-03T02:52:26.468Z,5.03
2018-05-03T02:54:54.684Z,5.40
2018-05-03T02:57:34.865Z,5.20
2018-05-03T03:00:20.799Z,5.43
2018-05-03T03:03:06.602Z,5.00
2018-05-03T03:12:22.702Z,6.17
2018-05-03T03:15:09.341Z,5.73
2018-05-03T03:17:55.254Z,5.40
2018-05-03T03:20:54.869Z,7.60
2018-05-03T03:23:40.841Z,5.77
2018-05-03T03:29:38.783Z,6.70
2018-05-03T03:32:19.783Z,5.27
2018-05-03T03:34:50.809Z,5.73
2018-05-03T03:37:31.533Z,6.10
2018-05-03T03:40:17.399Z,5.90
2018-05-03T03:56:25.550Z,6.80
2018-05-03T03:58:53.781Z,6.60
2018-05-03T04:01:22.022Z,7.13
2018-05-03T04:03:50.238Z,7.23
2018-05-03T04:06:19.273Z,7.10
2018-05-03T04:08:47.509Z,7.27
2018-05-03T04:11:15.725Z,6.97
2018-05-03T04:13:44.713Z,7.37
2018-05-03T04:16:12.933Z,7.60
2018-05-03T04:18:52.977Z,6.93
2018-05-03T04:21:32.959Z,7.23
2018-05-03T04:24:13.866Z,7.30
2018-05-03T04:26:42.001Z,7.53
2018-05-03T04:29:10.220Z,7.70
2018-05-03T04:31:38.504Z,7.50
2018-05-03T04:34:07.498Z,8.03
2018-05-03T04:36:36.490Z,8.23
2018-05-03T04:39:05.401Z,7.63
2018-05-03T04:41:33.627Z,8.53
2018-05-03T04:44:01.846Z,8.10
2018-05-03T04:46:30.070Z,7.67
2018-05-03T04:48:59.070Z,7.60
2018-05-03T04:51:27.296Z,8.77
2018-05-03T04:53:55.522Z,4.80
2018-05-03T04:56:26.611Z,8.10
2018-05-03T04:58:54.909Z,8.30
2018-05-03T05:01:23.144Z,8.20
2018-05-03T05:03:51.354Z,8.20
2018-05-03T05:06:19.620Z,8.47
2018-05-03T05:08:48.779Z,8.27
2018-05-03T05:11:17.810Z,8.67
2018-05-03T05:13:46.072Z,9.10
2018-05-03T05:16:15.698Z,8.93
2018-05-03T05:18:43.947Z,6.33
2018-05-03T05:21:12.164Z,4.83
2018-05-03T05:23:41.159Z,6.83
2018-05-03T05:26:09.377Z,6.53
2018-05-03T05:28:37.623Z,5.70
2018-05-03T05:31:05.834Z,5.23
2018-05-03T05:33:34.857Z,5.33
2018-05-03T05:36:03.119Z,4.60
2018-05-03T05:38:31.419Z,3.77
2018-05-03T05:40:59.577Z,3.10
2018-05-03T05:43:27.794Z,3.13
2018-05-03T05:45:56.800Z,3.00
2018-05-03T05:48:25.776Z,2.20
2018-05-03T05:50:54.002Z,2.90
2018-05-03T05:53:23.005Z,2.40
2018-05-03T05:55:52.003Z,1.80
2018-05-03T05:58:21.113Z,2.17
2018-05-03T06:00:50.106Z,2.23
2018-05-03T06:03:19.950Z,2.07
2018-05-03T06:05:49.667Z,2.00
2018-05-03T06:08:18.665Z,2.03
2018-05-03T06:10:46.936Z,2.23
2018-05-03T06:13:15.141Z,2.67
2018-05-03T06:15:44.142Z,2.17
2018-05-03T06:18:12.365Z,2.23
2018-05-03T06:20:40.580Z,2.47
2018-05-03T06:23:08.851Z,2.10
2018-05-03T06:25:37.102Z,2.13
2018-05-03T06:28:05.326Z,3.37
2018-05-03T06:30:33.574Z,2.43
2018-05-03T06:33:01.819Z,2.20
2018-05-03T06:35:30.049Z,2.50
2018-05-03T06:37:58.267Z,2.50
2018-05-03T06:40:26.490Z,2.47
2018-05-03T06:42:54.746Z,2.70
2018-05-03T06:45:23.025Z,2.47
2018-05-03T06:47:51.201Z,2.70
2018-05-03T06:50:20.188Z,3.00
2018-05-03T06:52:48.459Z,2.70
2018-05-03T06:55:16.684Z,2.60
2018-05-03T06:57:45.677Z,2.33
2018-05-03T07:00:15.397Z,2.30
2018-05-03T07:02:44.396Z,2.97
2018-05-03T07:05:12.608Z,2.20
2018-05-03T07:07:41.587Z,2.80
2018-05-03T07:10:09.813Z,2.73
2018-05-03T07:12:38.053Z,2.33
2018-05-03T07:15:06.287Z,2.70
2018-05-03T07:17:34.497Z,2.10
2018-05-03T07:20:02.700Z,2.10
2018-05-03T07:22:30.942Z,1.73
2018-05-03T07:24:59.154Z,2.93
2018-05-03T07:27:27.511Z,1.70
2018-05-03T07:29:55.846Z,2.23
2018-05-03T07:32:24.124Z,1.60
2018-05-03T07:34:53.277Z,2.57
2018-05-03T07:37:22.198Z,2.53
2018-05-03T07:39:50.425Z,1.70
2018-05-03T07:42:18.675Z,1.70
2018-05-03T07:44:47.693Z,1.80
2018-05-03T07:47:15.975Z,1.90
2018-05-03T07:49:44.973Z,2.37
2018-05-03T07:52:13.272Z,2.57
2018-05-03T07:54:42.282Z,2.77
2018-05-03T07:57:11.289Z,3.43
2018-05-03T07:59:40.281Z,2.60
2018-05-03T08:02:09.283Z,1.70
2018-05-03T08:04:38.289Z,3.27
2018-05-03T08:07:07.289Z,3.10
2018-05-03T08:09:35.528Z,2.23
2018-05-03T08:12:03.746Z,1.40
2018-05-03T08:14:31.961Z,2.37
2018-05-03T08:17:00.992Z,1.70
2018-05-03T08:19:29.963Z,1.60
2018-05-03T08:21:58.272Z,2.77
2018-05-03T08:24:27.296Z,3.37
2018-05-03T08:26:55.564Z,1.70
2018-05-03T08:29:24.549Z,3.13
2018-05-03T08:31:54.531Z,2.77
2018-05-03T08:34:22.721Z,1.70
2018-05-03T08:36:50.981Z,3.10
2018-05-03T08:39:20.001Z,2.57
2018-05-03T08:41:48.248Z,1.80
2018-05-03T08:44:16.562Z,1.97
2018-05-03T08:46:45.585Z,2.93
2018-05-03T08:49:13.814Z,2.30
2018-05-03T08:51:42.033Z,1.73
2018-05-03T08:54:11.029Z,2.97
2018-05-03T08:56:39.263Z,2.47
2018-05-03T08:59:07.485Z,3.27
2018-05-03T09:01:35.840Z,1.63
2018-05-03T09:04:04.801Z,2.43
2018-05-03T09:06:33.103Z,1.87
2018-05-03T09:09:02.084Z,1.83
2018-05-03T09:11:30.337Z,1.80
2018-05-03T09:13:59.832Z,1.80
2018-05-03T09:16:28.109Z,2.20
2018-05-03T09:18:57.186Z,2.97
2018-05-03T09:21:26.872Z,2.83
2018-05-03T09:23:55.821Z,2.40
2018-05-03T09:26:24.153Z,1.73
2018-05-03T09:28:52.449Z,2.53
2018-05-03T09:31:20.806Z,2.50
2018-05-03T09:33:50.025Z,2.27
2018-05-03T09:36:19.018Z,2.37
2018-05-03T09:38:48.069Z,2.30
2018-05-03T09:41:16.394Z,2.03
2018-05-03T09:43:44.590Z,1.83
2018-05-03T09:46:12.892Z,2.60
2018-05-03T09:48:41.120Z,2.80
2018-05-03T09:51:09.374Z,2.73
2018-05-03T09:53:38.373Z,2.13
2018-05-03T09:56:07.411Z,1.70
2018-05-03T09:58:36.388Z,3.20
2018-05-03T10:01:04.605Z,3.30
2018-05-03T10:03:32.825Z,2.70
2018-05-03T10:06:01.057Z,2.50
2018-05-03T10:08:30.052Z,3.17
2018-05-03T10:10:58.323Z,2.30
2018-05-03T10:13:26.531Z,4.10
2018-05-03T10:15:55.554Z,3.03
2018-05-03T10:18:24.581Z,3.57
2018-05-03T10:20:53.673Z,3.93
2018-05-03T10:23:21.976Z,3.03
2018-05-03T10:25:50.222Z,2.90
2018-05-03T10:28:18.531Z,2.93
2018-05-03T10:30:47.559Z,2.10
2018-05-03T10:33:15.778Z,3.27
2018-05-03T10:35:44.063Z,3.17
2018-05-03T10:38:12.289Z,2.63
2018-05-03T10:40:41.282Z,2.70
2018-05-03T10:43:09.485Z,2.57
2018-05-03T10:45:38.515Z,2.23
2018-05-03T10:48:06.732Z,1.90
2018-05-03T10:50:34.961Z,2.87
2018-05-03T10:53:03.266Z,2.63
2018-05-03T10:55:32.278Z,2.43
2018-05-03T10:58:01.265Z,2.73
2018-05-03T11:00:30.253Z,2.13
2018-05-03T11:02:58.478Z,2.10
2018-05-03T11:05:27.602Z,2.30
2018-05-03T11:07:56.850Z,2.00
2018-05-03T11:10:25.084Z,2.47
2018-05-03T11:12:54.114Z,2.43
2018-05-03T11:15:22.408Z,2.07
2018-05-03T11:17:50.668Z,2.17
2018-05-03T11:20:18.985Z,2.37
2018-05-03T11:22:47.236Z,2.37
2018-05-03T11:25:16.234Z,2.23
2018-05-03T11:27:45.530Z,2.43
2018-05-03T11:30:13.757Z,2.30
2018-05-03T11:32:41.970Z,2.00
2018-05-03T11:35:10.217Z,1.80
2018-05-03T11:37:39.205Z,2.43
2018-05-03T11:40:07.438Z,2.30
2018-05-03T11:42:35.787Z,2.50
2018-05-03T11:45:03.982Z,2.23
2018-05-03T11:47:32.992Z,2.10
2018-05-03T11:50:01.981Z,2.20
2018-05-03T11:52:30.501Z,1.80
2018-05-03T11:54:58.776Z,2.10
2018-05-03T11:57:26.989Z,2.30
2018-05-03T11:59:56.042Z,1.80
2018-05-03T12:02:24.307Z,2.00
2018-05-03T12:04:53.298Z,2.07
2018-05-03T12:07:22.344Z,1.70
2018-05-03T12:09:50.561Z,1.67
2018-05-03T12:12:18.789Z,2.27
2018-05-03T12:14:47.062Z,1.93
2018-05-03T12:17:16.045Z,1.80
2018-05-03T12:19:44.347Z,2.40
2018-05-03T12:22:12.558Z,2.23
2018-05-03T12:24:40.778Z,1.90
2018-05-03T12:27:09.008Z,1.90
2018-05-03T12:29:37.237Z,2.07
2018-05-03T12:32:05.452Z,2.00
2018-05-03T12:34:33.685Z,1.80
2018-05-03T12:37:02.678Z,2.20
2018-05-03T12:39:30.994Z,1.93
2018-05-03T12:41:59.261Z,2.40
2018-05-03T12:44:28.409Z,2.03
2018-05-03T12:46:56.664Z,2.20
2018-05-03T12:49:25.645Z,2.10
2018-05-03T12:51:53.979Z,1.80
2018-05-03T12:54:22.137Z,3.13
2018-05-03T12:56:50.397Z,2.43
2018-05-03T12:59:18.963Z,3.17
2018-05-03T13:01:47.189Z,2.47
2018-05-03T13:04:15.421Z,2.13
2018-05-03T13:06:43.629Z,2.17
2018-05-03T13:09:11.872Z,2.23
2018-05-03T13:11:40.860Z,2.30
2018-05-03T13:14:10.640Z,2.60
2018-05-03T13:16:38.862Z,2.50
2018-05-03T13:19:07.181Z,2.20
2018-05-03T13:21:36.283Z,2.23
2018-05-03T13:24:04.492Z,2.33
2018-05-03T13:26:33.580Z,3.00
2018-05-03T13:29:01.763Z,2.10
2018-05-03T13:31:29.990Z,2.30
2018-05-03T13:33:58.363Z,3.57
2018-05-03T13:36:27.345Z,2.23
2018-05-03T13:38:55.585Z,2.20
2018-05-03T13:41:23.827Z,2.03
2018-05-03T13:43:52.083Z,2.40
2018-05-03T13:46:20.437Z,2.40
2018-05-03T13:48:49.453Z,2.47
2018-05-03T13:51:18.267Z,2.47
2018-05-03T13:53:46.477Z,2.17
2018-05-03T13:56:14.753Z,2.33
2018-05-03T13:58:43.745Z,2.37
2018-05-03T14:01:11.970Z,2.20
2018-05-03T14:03:40.193Z,2.07
2018-05-03T14:06:09.160Z,2.23
2018-05-03T14:08:37.379Z,2.27
2018-05-03T14:11:06.416Z,2.10
2018-05-03T14:13:34.657Z,2.67
2018-05-03T14:16:02.910Z,2.27
2018-05-03T14:18:31.128Z,3.00
2018-05-03T14:20:59.990Z,2.50
2018-05-03T14:23:28.265Z,2.60
2018-05-03T14:25:56.493Z,2.40
2018-05-03T14:28:24.705Z,2.40
2018-05-03T14:30:53.691Z,2.20
2018-05-03T14:33:21.900Z,2.50
2018-05-03T14:35:50.889Z,2.50
2018-05-03T14:38:19.116Z,2.23
2018-05-03T14:40:48.072Z,2.10
2018-05-03T14:43:16.298Z,2.87
2018-05-03T14:45:44.510Z,2.47
2018-05-03T14:48:12.738Z,2.40
2018-05-03T14:50:40.966Z,2.70
2018-05-03T14:53:09.280Z,2.83
2018-05-03T14:55:37.416Z,3.13
2018-05-03T14:58:05.639Z,2.63
2018-05-03T15:00:33.863Z,2.70
2018-05-03T15:03:02.075Z,2.60
2018-05-03T15:05:30.287Z,2.67
2018-05-03T15:07:58.514Z,2.80
2018-05-03T15:10:28.714Z,2.57
2018-05-03T15:12:57.138Z,2.40
2018-05-03T15:15:25.389Z,3.03
2018-05-03T15:17:54.390Z,3.27
2018-05-03T15:20:23.387Z,2.30
2018-05-03T15:22:51.621Z,2.10
2018-05-03T15:25:19.890Z,3.10
2018-05-03T15:27:48.098Z,3.17
2018-05-03T15:30:16.326Z,2.57
2018-05-03T15:32:44.538Z,4.20
2018-05-03T15:35:13.549Z,4.23
2018-05-03T15:37:41.778Z,3.30
2018-05-03T15:40:10.000Z,3.93
2018-05-03T15:42:39.090Z,2.43
2018-05-03T15:45:07.594Z,2.97
2018-05-03T15:47:36.635Z,2.70
2018-05-03T15:50:05.675Z,2.80
2018-05-03T15:52:33.889Z,2.93
2018-05-03T15:55:02.099Z,2.60
2018-05-03T15:57:31.081Z,3.07
2018-05-03T15:59:59.318Z,2.87
2018-05-03T16:02:27.555Z,2.87
2018-05-03T16:04:55.836Z,28.03
2018-05-03T16:07:24.072Z,14.87
2018-05-03T16:09:53.067Z,5.03
2018-05-03T16:12:21.422Z,5.70
2018-05-03T16:14:49.666Z,6.20
2018-05-03T16:17:17.881Z,10.97
2018-05-03T16:19:46.139Z,4.87
2018-05-03T16:22:14.374Z,5.97
2018-05-03T16:24:42.588Z,18.43
2018-05-03T16:27:11.667Z,18.20
2018-05-03T16:29:41.297Z,18.97
2018-05-03T16:32:10.576Z,2.73
2018-05-03T16:34:38.899Z,2.43
2018-05-03T16:37:07.097Z,2.53
2018-05-03T16:39:35.331Z,2.80
2018-05-03T16:42:03.662Z,2.70
2018-05-03T16:44:31.848Z,2.20
2018-05-03T16:47:00.121Z,2.30
2018-05-03T16:49:28.350Z,2.73
2018-05-03T16:51:57.357Z,11.13
2018-05-03T16:54:26.361Z,3.07
2018-05-03T16:56:55.368Z,2.70
2018-05-03T16:59:23.668Z,2.70
2018-05-03T17:01:51.852Z,2.60
2018-05-03T17:04:20.907Z,2.40
2018-05-03T17:06:49.201Z,2.67
2018-05-03T17:09:17.953Z,2.90
2018-05-03T17:11:46.950Z,2.53
2018-05-03T17:14:15.966Z,3.10
2018-05-03T17:16:44.996Z,5.37
2018-05-03T17:19:14.043Z,2.60
2018-05-03T17:21:42.296Z,2.83
2018-05-03T17:24:10.569Z,3.10
2018-05-03T17:26:39.606Z,2.60
2018-05-03T17:29:07.809Z,2.83
2018-05-03T17:31:36.045Z,2.50
2018-05-03T17:34:04.257Z,2.20
2018-05-03T17:36:32.469Z,2.20
2018-05-03T17:39:00.833Z,2.33
2018-05-03T17:41:29.022Z,2.70
2018-05-03T17:43:57.347Z,3.73
2018-05-03T17:46:25.585Z,3.53
2018-05-03T17:48:53.858Z,3.10
2018-05-03T17:51:22.168Z,2.70
2018-05-03T17:53:50.401Z,1.97
2018-05-03T17:56:18.642Z,1.80
2018-05-03T17:58:47.693Z,2.10
2018-05-03T18:01:15.920Z,4.33
2018-05-03T18:03:44.117Z,13.77
2018-05-03T18:06:12.393Z,3.43
2018-05-03T18:08:41.374Z,11.60
2018-05-03T18:11:09.598Z,2.43
2018-05-03T18:13:37.809Z,2.23
2018-05-03T18:16:06.054Z,1.90
2018-05-03T18:18:34.241Z,2.37
2018-05-03T18:21:03.228Z,2.17
2018-05-03T18:23:31.441Z,2.00
2018-05-03T18:25:59.766Z,2.97
2018-05-03T18:28:28.013Z,2.40
2018-05-03T18:30:57.052Z,2.23
2018-05-03T18:33:25.290Z,1.97
2018-05-03T18:35:53.513Z,4.40
2018-05-03T18:38:21.853Z,2.30
2018-05-03T18:40:50.251Z,2.80
2018-05-03T18:43:18.471Z,2.53
2018-05-03T18:45:47.461Z,2.40
2018-05-03T18:48:16.435Z,2.00
2018-05-03T18:50:45.417Z,2.00
2018-05-03T18:53:13.629Z,2.93
2018-05-03T18:55:41.858Z,2.10
2018-05-03T18:58:10.842Z,2.13
2018-05-03T19:00:39.065Z,1.90
2018-05-03T19:03:08.040Z,2.60
2018-05-03T19:05:36.310Z,1.93
2018-05-03T19:08:04.513Z,2.43
2018-05-03T19:10:32.750Z,2.57
2018-05-03T19:13:01.032Z,1.90
2018-05-03T19:15:29.187Z,2.50
2018-05-03T19:17:58.216Z,2.70
2018-05-03T19:20:27.192Z,2.33
2018-05-03T19:22:55.408Z,2.43
2018-05-03T19:25:23.623Z,2.90
2018-05-03T19:27:51.842Z,2.17
2018-05-03T19:30:20.060Z,2.60
2018-05-03T19:32:49.039Z,2.30
2018-05-03T19:35:17.264Z,1.90
2018-05-03T19:37:45.469Z,2.30
2018-05-03T19:40:13.705Z,2.37
2018-05-03T19:42:42.000Z,2.33
2018-05-03T19:45:10.979Z,2.23
2018-05-03T19:47:39.331Z,2.37
2018-05-03T19:50:08.280Z,2.30
2018-05-03T19:52:37.262Z,2.47
2018-05-03T19:55:05.493Z,2.17
2018-05-03T19:57:33.700Z,2.60
2018-05-03T20:00:02.735Z,2.80
2018-05-03T20:02:30.965Z,2.83
2018-05-03T20:04:59.169Z,2.73
2018-05-03T20:07:28.149Z,2.73
2018-05-03T20:09:56.424Z,2.33
2018-05-03T20:12:24.642Z,2.67
2018-05-03T20:14:52.869Z,2.57
2018-05-03T20:17:21.088Z,2.47
2018-05-03T20:19:49.350Z,2.90
2018-05-03T20:22:17.546Z,3.07
2018-05-03T20:24:45.794Z,3.00
2018-05-03T20:27:13.985Z,2.47
2018-05-03T20:29:42.985Z,2.50
2018-05-03T20:32:11.185Z,2.87
2018-05-03T20:34:39.407Z,2.50
2018-05-03T20:37:07.617Z,2.90
2018-05-03T20:39:35.907Z,3.70
2018-05-03T20:42:04.052Z,2.47
2018-05-03T20:44:32.298Z,2.97
2018-05-03T20:47:00.505Z,2.57
2018-05-03T20:49:29.493Z,3.53
2018-05-03T20:51:57.750Z,2.40
2018-05-03T20:54:25.937Z,2.27
2018-05-03T20:56:54.167Z,2.47
2018-05-03T20:59:23.151Z,2.77
2018-05-03T21:01:51.370Z,2.80
2018-05-03T21:04:19.596Z,2.53
2018-05-03T21:06:47.808Z,2.77
2018-05-03T21:09:16.121Z,3.00
2018-05-03T21:11:45.109Z,3.00
2018-05-03T21:14:13.320Z,2.37
2018-05-03T21:16:42.308Z,2.90
2018-05-03T21:19:10.560Z,2.83
2018-05-03T21:21:39.500Z,2.47
2018-05-03T21:24:07.713Z,2.00
2018-05-03T21:26:35.927Z,2.70
2018-05-03T21:29:04.149Z,2.47
2018-05-03T21:31:32.361Z,2.63
2018-05-03T21:34:01.353Z,2.73
2018-05-03T21:36:29.589Z,2.50
2018-05-03T21:38:57.875Z,3.23
2018-05-03T21:41:26.108Z,2.70
2018-05-03T21:43:54.329Z,2.30
2018-05-03T21:46:23.310Z,2.70
2018-05-03T21:48:51.544Z,2.60
2018-05-03T21:51:19.812Z,2.93
2018-05-03T21:53:48.797Z,2.57
2018-05-03T21:56:17.001Z,2.80
2018-05-03T21:58:45.986Z,2.80
2018-05-03T22:01:14.201Z,2.47
2018-05-03T22:03:42.413Z,2.87
2018-05-03T22:06:10.639Z,3.00
2018-05-03T22:08:38.850Z,2.73
2018-05-03T22:11:07.849Z,2.90
2018-05-03T22:13:36.065Z,3.00
2018-05-03T22:16:04.286Z,2.30
2018-05-03T22:18:32.497Z,3.20
2018-05-03T22:21:00.705Z,3.00
2018-05-03T22:23:29.697Z,2.80
2018-05-03T22:25:57.977Z,2.67
2018-05-03T22:28:26.902Z,3.10
2018-05-03T22:30:55.109Z,3.17
2018-05-03T22:33:23.353Z,3.00
2018-05-03T22:35:51.584Z,3.03
2018-05-03T22:38:19.851Z,3.00
2018-05-03T22:40:48.065Z,2.80
2018-05-03T22:43:17.035Z,2.43
2018-05-03T22:45:45.270Z,2.83
2018-05-03T22:48:13.510Z,2.97
2018-05-03T22:50:41.713Z,3.13
2018-05-03T22:53:11.512Z,2.77
2018-05-03T22:55:39.724Z,3.30
2018-05-03T22:58:08.705Z,3.17
2018-05-03T23:00:36.918Z,3.23
2018-05-03T23:03:05.937Z,3.00
2018-05-03T23:05:34.920Z,4.23
2018-05-03T23:08:03.914Z,2.90
2018-05-03T23:10:32.118Z,2.93
2018-05-03T23:13:01.103Z,3.10
2018-05-03T23:15:29.328Z,2.83
2018-05-03T23:17:58.331Z,3.20
2018-05-03T23:20:27.345Z,3.00
2018-05-03T23:22:55.576Z,2.60
2018-05-03T23:25:23.797Z,2.70
2018-05-03T23:27:52.031Z,2.40
2018-05-03T23:30:20.320Z,2.97
2018-05-03T23:32:48.469Z,2.80
2018-05-03T23:35:17.444Z,2.73
2018-05-03T23:37:45.653Z,2.67
2018-05-03T23:40:14.628Z,3.03
2018-05-03T23:42:42.849Z,3.03
2018-05-03T23:45:11.831Z,3.60
2018-05-03T23:47:40.049Z,3.17
2018-05-03T23:50:09.049Z,3.77
2018-05-03T23:52:38.032Z,3.20
2018-05-03T23:55:06.239Z,3.00
2018-05-03T23:57:34.454Z,2.97
